createdAt,value
2023-10-13T00:00:43.405Z,62.10
2023-10-13T00:03:17.300Z,62.20
2023-10-13T00:05:45.343Z,62.30
2023-10-13T00:08:14.859Z,62.40
2023-10-13T00:10:43.467Z,62.40
2023-10-13T00:13:13.672Z,62.60
2023-10-13T00:16:01.006Z,62.80
2023-10-13T00:18:34.963Z,62.90
2023-10-13T00:21:14.048Z,63.00
2023-10-13T00:23:55.868Z,63.00
2023-10-13T00:26:26.416Z,63.00
2023-10-13T00:29:00.333Z,63.20
2023-10-13T00:31:33.897Z,63.20
2023-10-13T00:34:27.251Z,63.20
2023-10-13T00:37:12.765Z,62.60
2023-10-13T00:39:45.894Z,63.00
2023-10-13T00:42:21.861Z,62.60
2023-10-13T00:44:53.365Z,62.50
2023-10-13T00:47:39.366Z,62.60
2023-10-13T00:50:12.775Z,62.70
2023-10-13T00:52:43.041Z,62.70
2023-10-13T00:55:12.955Z,63.40
2023-10-13T00:57:42.001Z,62.80
2023-10-13T01:00:29.680Z,62.80
2023-10-13T01:02:57.551Z,62.80
2023-10-13T01:05:25.736Z,62.70
2023-10-13T01:08:02.539Z,62.80
2023-10-13T01:10:33.624Z,63.00
2023-10-13T01:13:03.785Z,63.00
2023-10-13T01:15:31.636Z,63.00
2023-10-13T01:18:12.450Z,63.10
2023-10-13T01:20:53.491Z,63.00
2023-10-13T01:23:20.786Z,63.00
2023-10-13T01:25:49.455Z,63.60
2023-10-13T01:28:19.548Z,63.00
2023-10-13T01:30:52.624Z,63.10
2023-10-13T01:33:29.868Z,63.20
2023-10-13T01:36:00.115Z,63.20
2023-10-13T01:38:34.671Z,63.20
2023-10-13T01:41:02.692Z,63.30
2023-10-13T01:43:29.727Z,63.40
2023-10-13T01:45:57.169Z,63.50
2023-10-13T01:48:25.089Z,64.10
2023-10-13T01:51:01.168Z,63.40
2023-10-13T01:53:30.467Z,63.60
2023-10-13T01:55:58.638Z,63.60
2023-10-13T01:58:27.483Z,63.50
2023-10-13T02:00:54.602Z,63.70
2023-10-13T02:03:22.902Z,63.70
2023-10-13T02:05:51.000Z,63.80
2023-10-13T02:08:24.077Z,63.80
2023-10-13T02:10:59.716Z,64.00
2023-10-13T02:13:27.368Z,64.20
2023-10-13T02:16:03.239Z,64.20
2023-10-13T02:18:42.594Z,64.20
2023-10-13T02:21:15.612Z,64.30
2023-10-13T02:23:45.418Z,64.40
2023-10-13T02:26:31.466Z,64.10
2023-10-13T02:29:08.758Z,63.50
2023-10-13T02:31:40.358Z,63.30
2023-10-13T02:34:13.220Z,63.20
2023-10-13T02:36:50.665Z,63.10
2023-10-13T02:39:19.025Z,63.10
2023-10-13T02:41:51.768Z,63.30
2023-10-13T02:44:34.912Z,63.60
2023-10-13T02:47:02.121Z,63.80
2023-10-13T02:49:32.550Z,63.90
2023-10-13T02:52:05.146Z,64.20
2023-10-13T02:54:32.630Z,64.20
2023-10-13T02:57:04.825Z,64.30
2023-10-13T02:59:40.306Z,64.40
2023-10-13T03:02:19.246Z,64.50
2023-10-13T03:04:48.904Z,64.50
2023-10-13T03:07:25.351Z,64.50
2023-10-13T03:09:53.370Z,64.40
2023-10-13T03:12:21.178Z,64.40
2023-10-13T03:14:56.202Z,64.30
2023-10-13T03:17:34.617Z,64.20
2023-10-13T03:20:01.848Z,64.10
2023-10-13T03:22:32.544Z,64.00
2023-10-13T03:25:07.201Z,64.00
2023-10-13T03:27:49.752Z,63.90
2023-10-13T03:30:17.242Z,63.80
2023-10-13T03:32:55.580Z,63.60
2023-10-13T03:35:25.952Z,63.60
2023-10-13T03:37:53.564Z,63.60
2023-10-13T03:40:21.583Z,63.60
2023-10-13T03:43:11.667Z,63.30
2023-10-13T03:45:49.430Z,63.20
2023-10-13T03:48:27.531Z,63.10
2023-10-13T03:51:08.362Z,63.10
2023-10-13T03:53:37.870Z,63.10
2023-10-13T03:56:09.630Z,63.10
2023-10-13T03:58:40.032Z,63.10
2023-10-13T04:01:07.037Z,62.90
2023-10-13T04:03:38.013Z,63.10
2023-10-13T04:06:08.832Z,63.10
2023-10-13T04:08:50.401Z,63.80
2023-10-13T04:11:36.135Z,63.00
2023-10-13T04:14:25.123Z,63.00
2023-10-13T04:16:53.538Z,63.00
2023-10-13T04:19:27.758Z,62.90
2023-10-13T04:22:00.912Z,62.90
2023-10-13T04:24:58.803Z,62.80
2023-10-13T04:27:40.542Z,62.70
2023-10-13T04:30:08.648Z,62.80
2023-10-13T04:32:47.710Z,62.80
2023-10-13T04:35:14.794Z,62.80
2023-10-13T04:38:02.785Z,62.60
2023-10-13T04:40:36.586Z,62.50
2023-10-13T04:43:26.636Z,62.40
2023-10-13T04:45:56.406Z,62.50
2023-10-13T04:48:23.929Z,62.50
2023-10-13T04:51:17.201Z,62.40
2023-10-13T04:54:05.300Z,62.50
2023-10-13T04:56:50.774Z,62.40
2023-10-13T04:59:37.220Z,62.40
2023-10-13T05:02:22.920Z,62.40
2023-10-13T05:05:09.832Z,62.40
2023-10-13T05:07:55.209Z,62.40
2023-10-13T05:10:40.816Z,62.40
2023-10-13T05:13:26.294Z,62.50
2023-10-13T05:16:12.165Z,62.50
2023-10-13T05:18:57.924Z,62.40
2023-10-13T05:21:43.138Z,62.30
2023-10-13T05:24:29.157Z,62.10
2023-10-13T05:27:14.756Z,62.00
2023-10-13T05:30:05.059Z,61.90
2023-10-13T05:32:51.697Z,61.90
2023-10-13T05:35:39.811Z,61.70
2023-10-13T05:38:25.509Z,61.70
2023-10-13T05:41:19.733Z,61.70
2023-10-13T05:44:07.599Z,61.90
2023-10-13T05:46:41.062Z,62.10
2023-10-13T05:49:12.018Z,62.10
2023-10-13T05:51:39.481Z,62.00
2023-10-13T05:54:15.701Z,62.40
2023-10-13T05:57:06.505Z,62.60
2023-10-13T05:59:53.305Z,62.70
2023-10-13T06:02:39.874Z,62.80
2023-10-13T06:05:31.452Z,62.90
2023-10-13T06:08:18.925Z,63.00
2023-10-13T06:11:06.892Z,63.00
2023-10-13T06:13:52.583Z,63.00
2023-10-13T06:16:38.294Z,63.10
2023-10-13T06:19:24.335Z,63.10
2023-10-13T06:22:10.027Z,63.20
2023-10-13T06:24:55.837Z,63.10
2023-10-13T06:27:41.201Z,63.10
2023-10-13T06:30:08.561Z,62.90
2023-10-13T06:32:35.597Z,62.80
2023-10-13T06:35:20.049Z,62.80
2023-10-13T06:37:47.299Z,62.90
2023-10-13T06:40:32.827Z,62.90
2023-10-13T06:43:13.396Z,62.90
2023-10-13T06:45:40.930Z,63.00
2023-10-13T06:48:12.638Z,63.30
2023-10-13T06:50:45.268Z,63.40
2023-10-13T06:53:14.060Z,63.30
2023-10-13T06:55:41.394Z,63.00
2023-10-13T06:58:14.869Z,62.80
2023-10-13T07:00:42.349Z,62.60
2023-10-13T07:03:20.003Z,62.30
2023-10-13T07:05:49.974Z,62.10
2023-10-13T07:08:25.268Z,62.00
2023-10-13T07:11:19.150Z,61.70
2023-10-13T07:13:53.412Z,61.60
2023-10-13T07:16:30.263Z,61.60
2023-10-13T07:19:05.478Z,62.20
2023-10-13T07:21:34.057Z,61.60
2023-10-13T07:24:12.314Z,61.50
2023-10-13T07:26:48.040Z,61.40
2023-10-13T07:29:15.904Z,61.30
2023-10-13T07:31:46.700Z,61.40
2023-10-13T07:34:26.287Z,61.40
2023-10-13T07:37:02.734Z,61.30
2023-10-13T07:39:35.708Z,61.10
2023-10-13T07:42:09.316Z,61.10
2023-10-13T07:44:38.480Z,61.20
2023-10-13T07:47:05.871Z,61.00
2023-10-13T07:49:37.960Z,60.80
2023-10-13T07:52:24.671Z,60.70
2023-10-13T07:55:13.250Z,60.50
2023-10-13T07:58:00.417Z,60.30
2023-10-13T08:00:39.910Z,60.30
2023-10-13T08:03:12.951Z,60.10
2023-10-13T08:05:58.655Z,59.70
2023-10-13T08:08:39.338Z,59.50
2023-10-13T08:11:12.708Z,59.30
2023-10-13T08:14:01.810Z,59.20
2023-10-13T08:16:47.245Z,59.00
2023-10-13T08:19:16.415Z,58.90
2023-10-13T08:21:58.699Z,58.80
2023-10-13T08:24:30.475Z,58.80
2023-10-13T08:27:15.628Z,58.80
2023-10-13T08:29:52.526Z,58.70
2023-10-13T08:32:28.192Z,59.10
2023-10-13T08:34:59.450Z,58.80
2023-10-13T08:37:33.983Z,58.40
2023-10-13T08:40:24.152Z,58.80
2023-10-13T08:43:05.304Z,58.90
2023-10-13T08:45:37.241Z,58.80
2023-10-13T08:48:10.373Z,57.40
2023-10-13T08:50:51.335Z,56.60
2023-10-13T08:53:32.001Z,55.70
2023-10-13T08:56:15.864Z,55.10
2023-10-13T08:58:56.000Z,54.30
2023-10-13T09:01:37.275Z,55.00
2023-10-13T09:04:43.994Z,53.50
2023-10-13T09:07:16.523Z,53.10
2023-10-13T09:10:00.846Z,52.90
2023-10-13T09:12:33.610Z,52.90
2023-10-13T09:15:13.846Z,52.60
2023-10-13T09:17:55.507Z,52.90
2023-10-13T09:20:36.510Z,52.70
2023-10-13T09:23:10.219Z,52.60
2023-10-13T09:25:39.102Z,52.70
2023-10-13T09:28:16.635Z,52.60
2023-10-13T09:30:53.946Z,52.80
2023-10-13T09:33:34.164Z,52.80
2023-10-13T09:36:01.636Z,52.70
2023-10-13T09:38:30.065Z,52.40
2023-10-13T09:41:19.051Z,52.60
2023-10-13T09:43:47.480Z,52.80
2023-10-13T09:46:24.975Z,53.70
2023-10-13T09:49:30.557Z,54.30
2023-10-13T09:52:01.821Z,54.10
2023-10-13T09:54:46.928Z,52.30
2023-10-13T09:57:19.974Z,51.20
2023-10-13T09:59:53.542Z,50.00
2023-10-13T10:02:30.879Z,49.10
2023-10-13T10:05:23.044Z,49.00
2023-10-13T10:08:00.478Z,48.90
2023-10-13T10:11:21.815Z,48.50
2023-10-13T10:14:13.550Z,48.60
2023-10-13T10:17:04.974Z,48.40
2023-10-13T10:19:37.487Z,48.10
2023-10-13T10:22:18.073Z,48.30
2023-10-13T10:24:45.499Z,48.70
2023-10-13T10:27:15.644Z,48.50
2023-10-13T10:29:55.573Z,48.60
2023-10-13T10:32:22.708Z,49.70
2023-10-13T10:34:50.378Z,49.10
2023-10-13T10:37:18.148Z,48.80
2023-10-13T10:39:48.008Z,48.90
2023-10-13T10:42:30.426Z,48.80
2023-10-13T10:44:59.340Z,48.40
2023-10-13T10:47:32.982Z,48.20
2023-10-13T10:50:20.530Z,47.60
2023-10-13T10:52:48.121Z,47.40
2023-10-13T10:55:21.208Z,47.60
2023-10-13T10:57:50.218Z,47.50
2023-10-13T11:00:27.087Z,47.50
2023-10-13T11:02:58.018Z,47.60
2023-10-13T11:05:33.920Z,47.60
2023-10-13T11:08:03.590Z,47.80
2023-10-13T11:10:33.025Z,48.10
2023-10-13T11:13:14.474Z,48.20
2023-10-13T11:15:46.154Z,47.30
2023-10-13T11:18:22.876Z,47.50
2023-10-13T11:20:56.176Z,47.50
2023-10-13T11:23:26.891Z,47.60
2023-10-13T11:26:01.174Z,47.50
2023-10-13T11:28:33.102Z,47.70
2023-10-13T11:31:00.779Z,47.60
2023-10-13T11:33:30.015Z,47.80
2023-10-13T11:35:58.246Z,48.40
2023-10-13T11:38:41.696Z,48.10
2023-10-13T11:41:08.649Z,48.30
2023-10-13T11:43:43.077Z,48.60
2023-10-13T11:46:16.880Z,48.60
2023-10-13T11:48:47.657Z,48.40
2023-10-13T11:51:25.358Z,48.70
2023-10-13T11:53:53.257Z,48.70
2023-10-13T11:56:24.335Z,48.60
2023-10-13T11:58:52.320Z,49.40
2023-10-13T12:01:19.771Z,48.70
2023-10-13T12:04:06.918Z,48.60
2023-10-13T12:06:38.392Z,48.60
2023-10-13T12:09:35.847Z,48.40
2023-10-13T12:12:03.697Z,48.40
2023-10-13T12:14:53.936Z,48.50
2023-10-13T12:17:26.542Z,48.50
2023-10-13T12:19:54.450Z,48.10
2023-10-13T12:22:36.903Z,47.90
2023-10-13T12:25:19.686Z,47.80
2023-10-13T12:27:49.626Z,47.60
2023-10-13T12:30:23.778Z,47.40
2023-10-13T12:33:09.884Z,47.50
2023-10-13T12:35:59.821Z,47.30
2023-10-13T12:38:45.407Z,47.70
2023-10-13T12:41:35.713Z,47.50
2023-10-13T12:44:23.548Z,47.50
2023-10-13T12:47:09.947Z,47.50
2023-10-13T12:49:44.023Z,46.90
2023-10-13T12:52:18.094Z,46.40
2023-10-13T12:54:57.698Z,45.40
2023-10-13T12:57:28.805Z,45.00
2023-10-13T12:59:56.478Z,45.00
2023-10-13T13:02:27.778Z,44.50
2023-10-13T13:05:02.997Z,44.50
2023-10-13T13:07:30.908Z,44.70
2023-10-13T13:10:01.413Z,43.90
2023-10-13T13:12:29.655Z,43.40
2023-10-13T13:14:56.561Z,43.10
2023-10-13T13:17:23.536Z,42.60
2023-10-13T13:19:50.715Z,42.20
2023-10-13T13:22:19.067Z,41.30
2023-10-13T13:24:46.723Z,39.80
2023-10-13T13:27:15.656Z,38.90
2023-10-13T13:29:43.135Z,38.20
2023-10-13T13:32:20.094Z,38.00
2023-10-13T13:34:56.116Z,37.90
2023-10-13T13:37:23.326Z,38.40
2023-10-13T13:39:53.878Z,38.60
2023-10-13T13:42:21.393Z,38.90
2023-10-13T13:44:49.000Z,39.20
2023-10-13T13:47:16.239Z,39.50
2023-10-13T13:49:52.542Z,39.80
2023-10-13T13:52:23.014Z,39.50
2023-10-13T13:54:50.023Z,38.60
2023-10-13T13:57:18.868Z,37.90
2023-10-13T13:59:46.689Z,37.50
2023-10-13T14:02:22.951Z,37.20
2023-10-13T14:04:54.188Z,36.60
2023-10-13T14:07:21.342Z,36.80
2023-10-13T14:09:52.938Z,36.70
2023-10-13T14:12:42.772Z,37.90
2023-10-13T14:15:21.273Z,37.50
2023-10-13T14:17:50.558Z,37.50
2023-10-13T14:20:20.809Z,37.70
2023-10-13T14:22:50.944Z,38.10
2023-10-13T14:25:18.930Z,38.70
2023-10-13T14:27:46.590Z,39.80
2023-10-13T14:30:22.010Z,39.70
2023-10-13T14:32:49.078Z,40.10
2023-10-13T14:35:16.098Z,40.30
2023-10-13T14:37:43.182Z,40.30
2023-10-13T14:40:14.013Z,40.70
2023-10-13T14:42:43.793Z,40.80
2023-10-13T14:45:14.196Z,41.20
2023-10-13T14:47:45.141Z,41.30
2023-10-13T14:50:22.831Z,41.60
2023-10-13T14:52:50.877Z,41.80
2023-10-13T14:55:20.884Z,41.80
2023-10-13T14:57:52.229Z,42.10
2023-10-13T15:00:28.942Z,42.10
2023-10-13T15:02:56.499Z,42.30
2023-10-13T15:05:23.936Z,42.50
2023-10-13T15:07:52.800Z,42.80
2023-10-13T15:10:19.850Z,42.70
2023-10-13T15:12:46.861Z,42.80
2023-10-13T15:15:21.032Z,42.90
2023-10-13T15:17:49.427Z,42.50
2023-10-13T15:20:19.391Z,42.20
2023-10-13T15:22:49.256Z,42.60
2023-10-13T15:25:22.450Z,42.10
2023-10-13T15:27:58.682Z,42.40
2023-10-13T15:30:32.119Z,42.20
2023-10-13T15:32:59.352Z,42.20
2023-10-13T15:35:29.747Z,42.50
2023-10-13T15:37:57.477Z,42.40
2023-10-13T15:40:25.266Z,42.40
2023-10-13T15:42:52.235Z,42.30
2023-10-13T15:45:19.522Z,42.20
2023-10-13T15:50:22.239Z,42.50
2023-10-13T15:52:49.973Z,42.40
2023-10-13T15:55:18.881Z,42.60
2023-10-13T15:57:46.249Z,42.50
2023-10-13T16:00:27.140Z,42.60
2023-10-13T16:02:55.923Z,42.70
2023-10-13T16:05:24.470Z,42.90
2023-10-13T16:07:54.593Z,43.10
2023-10-13T16:10:24.696Z,43.00
2023-10-13T16:12:51.672Z,43.10
2023-10-13T16:15:19.702Z,43.30
2023-10-13T16:17:46.972Z,43.60
2023-10-13T16:20:19.775Z,43.60
2023-10-13T16:22:47.797Z,43.70
2023-10-13T16:25:20.063Z,43.90
2023-10-13T16:27:47.672Z,43.90
2023-10-13T16:30:20.727Z,44.10
2023-10-13T16:32:48.520Z,44.10
2023-10-13T16:35:19.770Z,44.20
2023-10-13T16:37:48.363Z,44.30
2023-10-13T16:40:22.130Z,44.50
2023-10-13T16:42:50.789Z,44.60
2023-10-13T16:45:27.163Z,44.70
2023-10-13T16:47:55.317Z,45.00
2023-10-13T16:50:23.111Z,45.20
2023-10-13T16:52:50.363Z,45.40
2023-10-13T16:55:21.430Z,45.60
2023-10-13T16:57:52.385Z,46.60
2023-10-13T17:00:27.132Z,46.40
2023-10-13T17:02:55.592Z,46.60
2023-10-13T17:05:23.469Z,46.80
2023-10-13T17:07:52.634Z,46.90
2023-10-13T17:10:19.748Z,47.20
2023-10-13T17:12:47.312Z,47.40
2023-10-13T17:15:33.445Z,47.90
2023-10-13T17:18:06.605Z,48.10
2023-10-13T17:20:40.956Z,48.30
2023-10-13T17:23:09.213Z,48.80
2023-10-13T17:25:37.290Z,49.00
2023-10-13T17:28:16.248Z,49.30
2023-10-13T17:30:45.445Z,49.40
2023-10-13T17:33:13.192Z,49.50
2023-10-13T17:35:45.001Z,49.50
2023-10-13T17:38:12.056Z,49.60
2023-10-13T17:40:39.790Z,49.60
2023-10-13T17:43:06.856Z,49.70
2023-10-13T17:45:37.321Z,50.10
2023-10-13T17:48:07.403Z,50.10
2023-10-13T17:50:35.230Z,50.30
2023-10-13T17:53:02.609Z,50.50
2023-10-13T17:55:30.243Z,50.70
2023-10-13T17:58:00.365Z,50.70
2023-10-13T18:00:27.521Z,51.20
2023-10-13T18:02:55.883Z,51.20
2023-10-13T18:05:23.170Z,51.40
2023-10-13T18:07:50.213Z,51.50
2023-10-13T18:10:17.275Z,51.60
2023-10-13T18:12:45.914Z,51.70
2023-10-13T18:15:19.288Z,51.70
2023-10-13T18:17:46.363Z,51.90
2023-10-13T18:20:16.663Z,51.30
2023-10-13T18:22:43.828Z,51.90
2023-10-13T18:25:14.555Z,52.00
2023-10-13T18:27:45.036Z,52.10
2023-10-13T18:30:15.814Z,52.20
2023-10-13T18:32:51.489Z,52.30
2023-10-13T18:35:20.075Z,52.50
2023-10-13T18:37:48.507Z,52.50
2023-10-13T18:40:18.210Z,52.70
2023-10-13T18:42:49.369Z,52.80
2023-10-13T18:45:26.977Z,52.90
2023-10-13T18:47:54.089Z,53.00
2023-10-13T18:50:24.466Z,53.20
2023-10-13T18:52:52.027Z,53.30
2023-10-13T18:55:18.916Z,53.40
2023-10-13T18:57:45.921Z,53.50
2023-10-13T19:00:16.093Z,53.70
2023-10-13T19:02:51.983Z,53.80
2023-10-13T19:05:21.614Z,53.80
2023-10-13T19:07:51.571Z,53.90
2023-10-13T19:10:19.160Z,54.00
2023-10-13T19:12:55.947Z,53.90
2023-10-13T19:15:26.587Z,54.00
2023-10-13T19:17:53.707Z,54.20
2023-10-13T19:20:20.886Z,54.20
2023-10-13T19:22:53.289Z,54.30
2023-10-13T19:25:20.399Z,54.30
2023-10-13T19:27:49.171Z,54.30
2023-10-13T19:30:22.384Z,54.40
2023-10-13T19:32:52.200Z,54.40
2023-10-13T19:35:22.536Z,54.50
2023-10-13T19:37:49.810Z,54.60
2023-10-13T19:40:16.817Z,54.60
2023-10-13T19:42:43.772Z,54.80
2023-10-13T19:45:14.202Z,54.80
2023-10-13T19:47:42.449Z,54.90
2023-10-13T19:50:20.880Z,55.00
2023-10-13T19:52:48.028Z,55.00
2023-10-13T19:55:18.106Z,55.10
2023-10-13T19:57:46.266Z,55.10
2023-10-13T20:00:23.148Z,55.00
2023-10-13T20:02:54.590Z,55.00
2023-10-13T20:05:22.207Z,55.10
2023-10-13T20:07:49.937Z,55.10
2023-10-13T20:10:16.968Z,55.30
2023-10-13T20:12:45.845Z,55.30
2023-10-13T20:15:15.084Z,55.40
2023-10-13T20:17:43.471Z,55.50
2023-10-13T20:20:13.707Z,55.50
2023-10-13T20:22:40.618Z,55.50
2023-10-13T20:25:15.377Z,55.40
2023-10-13T20:27:44.179Z,55.40
2023-10-13T20:30:12.489Z,55.40
2023-10-13T20:32:39.798Z,55.30
2023-10-13T20:35:07.290Z,55.40
2023-10-13T20:37:35.249Z,55.30
2023-10-13T20:40:13.172Z,55.40
2023-10-13T20:42:40.103Z,55.40
2023-10-13T20:45:07.477Z,55.40
2023-10-13T20:47:34.539Z,55.40
2023-10-13T20:50:02.020Z,55.50
2023-10-13T20:52:28.892Z,55.70
2023-10-13T20:54:57.150Z,55.70
2023-10-13T20:57:24.151Z,55.80
2023-10-13T20:59:51.035Z,56.00
2023-10-13T21:02:23.608Z,56.10
2023-10-13T21:04:51.710Z,56.00
2023-10-13T21:07:19.904Z,56.10
2023-10-13T21:09:47.447Z,56.20
2023-10-13T21:12:15.802Z,56.20
2023-10-13T21:14:44.301Z,56.40
2023-10-13T21:17:11.301Z,56.40
2023-10-13T21:19:40.688Z,56.60
2023-10-13T21:22:11.594Z,56.70
2023-10-13T21:24:38.810Z,56.80
2023-10-13T21:27:05.857Z,56.90
2023-10-13T21:29:34.042Z,57.10
2023-10-13T21:32:02.915Z,57.10
2023-10-13T21:34:31.735Z,57.10
2023-10-13T21:37:01.082Z,57.40
2023-10-13T21:39:45.467Z,57.60
2023-10-13T21:42:14.765Z,57.60
2023-10-13T21:44:41.794Z,57.70
2023-10-13T21:47:08.844Z,57.70
2023-10-13T21:49:36.954Z,57.80
2023-10-13T21:52:04.088Z,57.80
2023-10-13T21:54:32.887Z,57.80
2023-10-13T21:56:59.895Z,57.90
2023-10-13T21:59:26.794Z,58.00
2023-10-13T22:01:54.735Z,58.00
2023-10-13T22:04:23.120Z,58.10
2023-10-13T22:06:50.420Z,58.10
2023-10-13T22:09:19.016Z,58.10
2023-10-13T22:11:46.001Z,58.20
2023-10-13T22:14:17.430Z,58.20
2023-10-13T22:16:44.847Z,58.20
2023-10-13T22:19:11.989Z,58.20
2023-10-13T22:21:39.997Z,58.30
2023-10-13T22:24:07.639Z,58.20
2023-10-13T22:26:34.539Z,58.40
2023-10-13T22:29:01.481Z,58.40
2023-10-13T22:31:29.174Z,58.40
2023-10-13T22:33:56.789Z,58.50
2023-10-13T22:36:24.204Z,58.50
2023-10-13T22:38:58.393Z,58.50
2023-10-13T22:41:34.962Z,58.50
2023-10-13T22:44:07.098Z,58.60
2023-10-13T22:46:34.311Z,58.60
2023-10-13T22:49:01.373Z,58.70
2023-10-13T22:51:29.518Z,58.60
2023-10-13T22:53:56.399Z,58.60
2023-10-13T22:56:23.480Z,58.60
2023-10-13T22:58:50.397Z,58.50
2023-10-13T23:01:20.578Z,58.60
2023-10-13T23:03:58.138Z,58.60
2023-10-13T23:06:35.466Z,58.60
2023-10-13T23:09:13.141Z,58.70
2023-10-13T23:11:40.519Z,58.80
2023-10-13T23:14:07.769Z,58.90
2023-10-13T23:16:34.854Z,58.90
2023-10-13T23:19:03.394Z,59.00
2023-10-13T23:21:30.541Z,59.10
2023-10-13T23:23:58.019Z,59.40
2023-10-13T23:26:30.037Z,59.60
2023-10-13T23:28:57.071Z,59.80
2023-10-13T23:31:26.400Z,59.90
2023-10-13T23:33:57.147Z,60.00
2023-10-13T23:36:24.778Z,60.00
2023-10-13T23:39:01.162Z,59.90
2023-10-13T23:41:29.087Z,59.90
2023-10-13T23:43:57.078Z,59.80
2023-10-13T23:46:24.557Z,59.80
2023-10-13T23:48:54.209Z,59.80
2023-10-13T23:51:22.835Z,59.60
2023-10-13T23:53:50.591Z,59.70
2023-10-13T23:56:31.104Z,59.70
2023-10-13T23:59:01.577Z,59.80
